sensor_id;sensor_type;location;lat;lon;timestamp;temperature;humidity
37702;DHT22;23548;51.196;6.838;2024-03-06T00:01:05;5.50;99.90
37702;DHT22;23548;51.196;6.838;2024-03-06T00:03:30;5.40;99.90
37702;DHT22;23548;51.196;6.838;2024-03-06T00:05:56;5.30;99.90
37702;DHT22;23548;51.196;6.838;2024-03-06T00:08:22;5.30;99.90
37702;DHT22;23548;51.196;6.838;2024-03-06T00:10:48;5.40;99.90
37702;DHT22;23548;51.196;6.838;2024-03-06T00:13:13;5.40;99.90
37702;DHT22;23548;51.196;6.838;2024-03-06T00:15:39;5.40;99.90
37702;DHT22;23548;51.196;6.838;2024-03-06T00:18:05;5.40;99.90
37702;DHT22;23548;51.196;6.838;2024-03-06T00:20:31;5.50;99.90
37702;DHT22;23548;51.196;6.838;2024-03-06T00:22:57;5.50;99.90
37702;DHT22;23548;51.196;6.838;2024-03-06T00:25:24;5.30;99.90
37702;DHT22;23548;51.196;6.838;2024-03-06T00:27:50;5.20;99.90
37702;DHT22;23548;51.196;6.838;2024-03-06T00:30:16;5.20;99.90
37702;DHT22;23548;51.196;6.838;2024-03-06T00:32:42;5.20;99.90
37702;DHT22;23548;51.196;6.838;2024-03-06T00:35:08;5.20;99.90
37702;DHT22;23548;51.196;6.838;2024-03-06T00:37:34;5.10;99.90
37702;DHT22;23548;51.196;6.838;2024-03-06T00:39:59;5.10;99.90
37702;DHT22;23548;51.196;6.838;2024-03-06T00:42:25;5.00;99.90
37702;DHT22;23548;51.196;6.838;2024-03-06T00:44:51;5.00;99.90
37702;DHT22;23548;51.196;6.838;2024-03-06T00:47:16;4.90;99.90
37702;DHT22;23548;51.196;6.838;2024-03-06T00:49:42;4.90;99.90
37702;DHT22;23548;51.196;6.838;2024-03-06T00:52:08;4.90;99.90
37702;DHT22;23548;51.196;6.838;2024-03-06T00:54:35;4.90;99.90
37702;DHT22;23548;51.196;6.838;2024-03-06T00:57:00;4.80;99.90
37702;DHT22;23548;51.196;6.838;2024-03-06T00:59:27;4.80;99.90
37702;DHT22;23548;51.196;6.838;2024-03-06T01:01:53;4.80;99.90
37702;DHT22;23548;51.196;6.838;2024-03-06T01:04:22;4.70;99.90
37702;DHT22;23548;51.196;6.838;2024-03-06T01:06:47;4.70;99.90
37702;DHT22;23548;51.196;6.838;2024-03-06T01:09:13;4.70;99.90
37702;DHT22;23548;51.196;6.838;2024-03-06T01:11:39;4.70;99.90
37702;DHT22;23548;51.196;6.838;2024-03-06T01:14:05;4.60;99.90
37702;DHT22;23548;51.196;6.838;2024-03-06T01:16:31;4.60;99.90
37702;DHT22;23548;51.196;6.838;2024-03-06T01:18:56;4.60;99.90
37702;DHT22;23548;51.196;6.838;2024-03-06T01:21:22;4.60;99.90
37702;DHT22;23548;51.196;6.838;2024-03-06T01:23:48;4.60;99.90
37702;DHT22;23548;51.196;6.838;2024-03-06T01:26:13;4.60;99.90
37702;DHT22;23548;51.196;6.838;2024-03-06T01:28:39;4.50;99.90
37702;DHT22;23548;51.196;6.838;2024-03-06T01:31:05;4.60;99.90
37702;DHT22;23548;51.196;6.838;2024-03-06T01:33:31;4.50;99.90
37702;DHT22;23548;51.196;6.838;2024-03-06T01:35:56;4.50;99.90
37702;DHT22;23548;51.196;6.838;2024-03-06T01:38:23;4.60;99.90
37702;DHT22;23548;51.196;6.838;2024-03-06T01:40:48;4.60;99.90
37702;DHT22;23548;51.196;6.838;2024-03-06T01:43:21;4.60;99.90
37702;DHT22;23548;51.196;6.838;2024-03-06T01:45:48;4.50;99.90
37702;DHT22;23548;51.196;6.838;2024-03-06T01:48:26;4.50;99.90
37702;DHT22;23548;51.196;6.838;2024-03-06T01:50:56;4.40;99.90
37702;DHT22;23548;51.196;6.838;2024-03-06T01:53:22;4.40;99.90
37702;DHT22;23548;51.196;6.838;2024-03-06T01:55:49;4.30;99.90
37702;DHT22;23548;51.196;6.838;2024-03-06T01:58:16;4.30;99.90
37702;DHT22;23548;51.196;6.838;2024-03-06T02:00:42;4.30;99.90
37702;DHT22;23548;51.196;6.838;2024-03-06T02:03:08;4.20;99.90
37702;DHT22;23548;51.196;6.838;2024-03-06T02:05:35;4.30;99.90
37702;DHT22;23548;51.196;6.838;2024-03-06T02:08:00;4.20;99.90
37702;DHT22;23548;51.196;6.838;2024-03-06T02:10:27;4.20;99.90
37702;DHT22;23548;51.196;6.838;2024-03-06T02:12:54;4.10;99.90
37702;DHT22;23548;51.196;6.838;2024-03-06T02:15:20;4.00;99.90
37702;DHT22;23548;51.196;6.838;2024-03-06T02:17:45;4.00;99.90
37702;DHT22;23548;51.196;6.838;2024-03-06T02:20:12;3.90;99.90
37702;DHT22;23548;51.196;6.838;2024-03-06T02:22:40;4.00;99.90
37702;DHT22;23548;51.196;6.838;2024-03-06T02:25:06;4.10;99.90
37702;DHT22;23548;51.196;6.838;2024-03-06T02:27:32;4.10;99.90
37702;DHT22;23548;51.196;6.838;2024-03-06T02:29:58;4.20;99.90
37702;DHT22;23548;51.196;6.838;2024-03-06T02:32:24;4.20;99.90
37702;DHT22;23548;51.196;6.838;2024-03-06T02:34:51;4.30;99.90
37702;DHT22;23548;51.196;6.838;2024-03-06T02:40:38;4.40;99.90
37702;DHT22;23548;51.196;6.838;2024-03-06T02:43:04;4.30;99.90
37702;DHT22;23548;51.196;6.838;2024-03-06T02:45:30;4.20;99.90
37702;DHT22;23548;51.196;6.838;2024-03-06T02:47:55;4.30;99.90
37702;DHT22;23548;51.196;6.838;2024-03-06T02:50:21;4.40;99.90
37702;DHT22;23548;51.196;6.838;2024-03-06T02:52:48;4.60;99.90
37702;DHT22;23548;51.196;6.838;2024-03-06T02:55:14;4.60;99.90
37702;DHT22;23548;51.196;6.838;2024-03-06T02:57:40;4.70;99.90
37702;DHT22;23548;51.196;6.838;2024-03-06T03:00:06;4.60;99.90
37702;DHT22;23548;51.196;6.838;2024-03-06T03:02:39;4.70;99.90
37702;DHT22;23548;51.196;6.838;2024-03-06T03:05:05;4.70;99.90
37702;DHT22;23548;51.196;6.838;2024-03-06T03:07:31;4.70;99.90
37702;DHT22;23548;51.196;6.838;2024-03-06T03:09:57;4.70;99.90
37702;DHT22;23548;51.196;6.838;2024-03-06T03:12:23;4.70;99.90
37702;DHT22;23548;51.196;6.838;2024-03-06T03:14:48;4.80;99.90
37702;DHT22;23548;51.196;6.838;2024-03-06T03:17:14;4.90;99.90
37702;DHT22;23548;51.196;6.838;2024-03-06T03:19:40;4.90;99.90
37702;DHT22;23548;51.196;6.838;2024-03-06T03:22:06;4.80;99.90
37702;DHT22;23548;51.196;6.838;2024-03-06T03:24:33;4.80;99.90
37702;DHT22;23548;51.196;6.838;2024-03-06T03:26:59;4.70;99.90
37702;DHT22;23548;51.196;6.838;2024-03-06T03:29:25;4.70;99.90
37702;DHT22;23548;51.196;6.838;2024-03-06T03:31:50;4.70;99.90
37702;DHT22;23548;51.196;6.838;2024-03-06T03:34:16;4.80;99.90
37702;DHT22;23548;51.196;6.838;2024-03-06T03:36:42;4.80;99.90
37702;DHT22;23548;51.196;6.838;2024-03-06T03:39:10;4.80;99.90
37702;DHT22;23548;51.196;6.838;2024-03-06T03:41:45;4.70;99.90
37702;DHT22;23548;51.196;6.838;2024-03-06T03:44:15;4.80;99.90
37702;DHT22;23548;51.196;6.838;2024-03-06T03:46:41;4.80;99.90
37702;DHT22;23548;51.196;6.838;2024-03-06T03:49:07;4.80;99.90
37702;DHT22;23548;51.196;6.838;2024-03-06T03:51:35;4.70;99.90
37702;DHT22;23548;51.196;6.838;2024-03-06T03:54:01;4.70;99.90
37702;DHT22;23548;51.196;6.838;2024-03-06T03:56:26;4.60;99.90
37702;DHT22;23548;51.196;6.838;2024-03-06T03:58:52;4.50;99.90
37702;DHT22;23548;51.196;6.838;2024-03-06T04:01:18;4.50;99.90
37702;DHT22;23548;51.196;6.838;2024-03-06T04:03:44;4.50;99.90
37702;DHT22;23548;51.196;6.838;2024-03-06T04:06:12;4.50;99.90
37702;DHT22;23548;51.196;6.838;2024-03-06T04:08:38;4.40;99.90
37702;DHT22;23548;51.196;6.838;2024-03-06T04:11:04;4.40;99.90
37702;DHT22;23548;51.196;6.838;2024-03-06T04:13:30;4.40;99.90
37702;DHT22;23548;51.196;6.838;2024-03-06T04:15:55;4.30;99.90
37702;DHT22;23548;51.196;6.838;2024-03-06T04:18:22;4.30;99.90
37702;DHT22;23548;51.196;6.838;2024-03-06T04:20:47;4.20;99.90
37702;DHT22;23548;51.196;6.838;2024-03-06T04:23:13;4.20;99.90
37702;DHT22;23548;51.196;6.838;2024-03-06T04:25:39;4.10;99.90
37702;DHT22;23548;51.196;6.838;2024-03-06T04:28:05;4.10;99.90
37702;DHT22;23548;51.196;6.838;2024-03-06T04:30:33;4.10;99.90
37702;DHT22;23548;51.196;6.838;2024-03-06T04:32:59;4.00;99.90
37702;DHT22;23548;51.196;6.838;2024-03-06T04:35:25;4.10;99.90
37702;DHT22;23548;51.196;6.838;2024-03-06T04:37:50;4.20;99.90
37702;DHT22;23548;51.196;6.838;2024-03-06T04:40:16;4.30;99.90
37702;DHT22;23548;51.196;6.838;2024-03-06T04:42:46;4.40;99.90
37702;DHT22;23548;51.196;6.838;2024-03-06T04:45:16;4.50;99.90
37702;DHT22;23548;51.196;6.838;2024-03-06T04:47:42;4.50;99.90
37702;DHT22;23548;51.196;6.838;2024-03-06T04:50:09;4.60;99.90
37702;DHT22;23548;51.196;6.838;2024-03-06T04:52:36;4.70;99.90
37702;DHT22;23548;51.196;6.838;2024-03-06T04:55:02;4.70;99.90
37702;DHT22;23548;51.196;6.838;2024-03-06T04:57:28;4.70;99.90
37702;DHT22;23548;51.196;6.838;2024-03-06T04:59:54;4.60;99.90
37702;DHT22;23548;51.196;6.838;2024-03-06T05:02:21;4.50;99.90
37702;DHT22;23548;51.196;6.838;2024-03-06T05:04:46;4.50;99.90
37702;DHT22;23548;51.196;6.838;2024-03-06T05:07:12;4.50;99.90
37702;DHT22;23548;51.196;6.838;2024-03-06T05:09:38;4.60;99.90
37702;DHT22;23548;51.196;6.838;2024-03-06T05:12:07;4.60;99.90
37702;DHT22;23548;51.196;6.838;2024-03-06T05:14:33;4.60;99.90
37702;DHT22;23548;51.196;6.838;2024-03-06T05:16:59;4.60;99.90
37702;DHT22;23548;51.196;6.838;2024-03-06T05:19:25;4.60;99.90
37702;DHT22;23548;51.196;6.838;2024-03-06T05:22:00;4.50;99.90
37702;DHT22;23548;51.196;6.838;2024-03-06T05:24:26;4.50;99.90
37702;DHT22;23548;51.196;6.838;2024-03-06T05:26:51;4.50;99.90
37702;DHT22;23548;51.196;6.838;2024-03-06T05:29:17;4.50;99.90
37702;DHT22;23548;51.196;6.838;2024-03-06T05:31:43;4.60;99.90
37702;DHT22;23548;51.196;6.838;2024-03-06T05:34:09;4.70;99.90
37702;DHT22;23548;51.196;6.838;2024-03-06T05:36:34;4.70;99.90
37702;DHT22;23548;51.196;6.838;2024-03-06T05:39:00;4.70;99.90
37702;DHT22;23548;51.196;6.838;2024-03-06T05:41:26;4.80;99.90
37702;DHT22;23548;51.196;6.838;2024-03-06T05:43:51;4.80;99.90
37702;DHT22;23548;51.196;6.838;2024-03-06T05:46:17;4.80;99.90
37702;DHT22;23548;51.196;6.838;2024-03-06T05:48:45;4.70;99.90
37702;DHT22;23548;51.196;6.838;2024-03-06T05:51:10;4.70;99.90
37702;DHT22;23548;51.196;6.838;2024-03-06T05:53:37;4.60;99.90
37702;DHT22;23548;51.196;6.838;2024-03-06T05:56:05;4.70;99.90
37702;DHT22;23548;51.196;6.838;2024-03-06T05:58:32;4.80;99.90
37702;DHT22;23548;51.196;6.838;2024-03-06T06:01:00;4.80;99.90
37702;DHT22;23548;51.196;6.838;2024-03-06T06:03:26;5.00;99.90
37702;DHT22;23548;51.196;6.838;2024-03-06T06:05:54;5.20;99.90
37702;DHT22;23548;51.196;6.838;2024-03-06T06:08:20;5.20;99.90
37702;DHT22;23548;51.196;6.838;2024-03-06T06:10:45;5.20;99.90
37702;DHT22;23548;51.196;6.838;2024-03-06T06:13:11;5.30;99.90
37702;DHT22;23548;51.196;6.838;2024-03-06T06:15:37;5.30;99.90
37702;DHT22;23548;51.196;6.838;2024-03-06T06:18:03;5.40;99.90
37702;DHT22;23548;51.196;6.838;2024-03-06T06:20:29;5.50;99.90
37702;DHT22;23548;51.196;6.838;2024-03-06T06:22:55;5.60;99.90
37702;DHT22;23548;51.196;6.838;2024-03-06T06:25:22;5.70;99.90
37702;DHT22;23548;51.196;6.838;2024-03-06T06:27:48;6.00;99.90
37702;DHT22;23548;51.196;6.838;2024-03-06T06:30:16;6.30;99.90
37702;DHT22;23548;51.196;6.838;2024-03-06T06:32:42;6.40;99.90
37702;DHT22;23548;51.196;6.838;2024-03-06T06:35:09;6.30;99.90
37702;DHT22;23548;51.196;6.838;2024-03-06T06:37:35;6.40;99.90
37702;DHT22;23548;51.196;6.838;2024-03-06T06:40:01;6.40;99.90
37702;DHT22;23548;51.196;6.838;2024-03-06T06:42:32;6.40;99.90
37702;DHT22;23548;51.196;6.838;2024-03-06T06:44:59;6.30;99.90
37702;DHT22;23548;51.196;6.838;2024-03-06T06:47:25;6.30;99.90
37702;DHT22;23548;51.196;6.838;2024-03-06T06:49:51;6.30;99.90
37702;DHT22;23548;51.196;6.838;2024-03-06T06:52:17;6.50;99.90
37702;DHT22;23548;51.196;6.838;2024-03-06T06:54:43;6.50;99.90
37702;DHT22;23548;51.196;6.838;2024-03-06T06:57:08;6.50;99.90
37702;DHT22;23548;51.196;6.838;2024-03-06T06:59:34;6.60;99.90
37702;DHT22;23548;51.196;6.838;2024-03-06T07:02:01;6.60;99.90
37702;DHT22;23548;51.196;6.838;2024-03-06T07:04:27;6.70;99.90
37702;DHT22;23548;51.196;6.838;2024-03-06T07:06:53;6.70;99.90
37702;DHT22;23548;51.196;6.838;2024-03-06T07:09:19;6.90;99.90
37702;DHT22;23548;51.196;6.838;2024-03-06T07:11:46;6.90;99.90
37702;DHT22;23548;51.196;6.838;2024-03-06T07:14:12;6.90;99.90
37702;DHT22;23548;51.196;6.838;2024-03-06T07:16:45;7.10;99.90
37702;DHT22;23548;51.196;6.838;2024-03-06T07:19:11;7.10;99.90
37702;DHT22;23548;51.196;6.838;2024-03-06T07:21:37;7.30;99.90
37702;DHT22;23548;51.196;6.838;2024-03-06T07:24:03;7.30;99.90
37702;DHT22;23548;51.196;6.838;2024-03-06T07:26:33;7.20;99.90
37702;DHT22;23548;51.196;6.838;2024-03-06T07:28:59;7.30;99.90
37702;DHT22;23548;51.196;6.838;2024-03-06T07:31:25;7.40;99.90
37702;DHT22;23548;51.196;6.838;2024-03-06T07:33:51;7.30;99.90
37702;DHT22;23548;51.196;6.838;2024-03-06T07:36:20;7.20;99.90
37702;DHT22;23548;51.196;6.838;2024-03-06T07:38:47;7.20;99.90
37702;DHT22;23548;51.196;6.838;2024-03-06T07:41:12;7.40;99.90
37702;DHT22;23548;51.196;6.838;2024-03-06T07:43:39;7.40;99.90
37702;DHT22;23548;51.196;6.838;2024-03-06T07:46:05;7.40;99.90
37702;DHT22;23548;51.196;6.838;2024-03-06T07:48:37;7.40;99.90
37702;DHT22;23548;51.196;6.838;2024-03-06T07:51:03;7.60;99.90
37702;DHT22;23548;51.196;6.838;2024-03-06T07:53:28;7.60;99.90
37702;DHT22;23548;51.196;6.838;2024-03-06T07:55:54;7.60;99.90
37702;DHT22;23548;51.196;6.838;2024-03-06T07:58:20;7.60;99.90
37702;DHT22;23548;51.196;6.838;2024-03-06T08:00:46;7.50;99.90
37702;DHT22;23548;51.196;6.838;2024-03-06T08:03:12;7.40;99.90
37702;DHT22;23548;51.196;6.838;2024-03-06T08:05:39;7.40;99.90
37702;DHT22;23548;51.196;6.838;2024-03-06T08:08:05;7.30;99.90
37702;DHT22;23548;51.196;6.838;2024-03-06T08:10:30;7.40;99.90
37702;DHT22;23548;51.196;6.838;2024-03-06T08:12:56;7.50;99.90
37702;DHT22;23548;51.196;6.838;2024-03-06T08:15:23;7.70;99.90
37702;DHT22;23548;51.196;6.838;2024-03-06T08:17:49;7.90;99.90
37702;DHT22;23548;51.196;6.838;2024-03-06T08:20:15;8.00;99.90
37702;DHT22;23548;51.196;6.838;2024-03-06T08:22:42;8.20;99.90
37702;DHT22;23548;51.196;6.838;2024-03-06T08:25:09;8.50;99.90
37702;DHT22;23548;51.196;6.838;2024-03-06T08:27:36;8.60;99.90
37702;DHT22;23548;51.196;6.838;2024-03-06T08:30:03;8.60;99.90
37702;DHT22;23548;51.196;6.838;2024-03-06T08:32:31;8.30;99.90
37702;DHT22;23548;51.196;6.838;2024-03-06T08:34:58;8.20;99.90
37702;DHT22;23548;51.196;6.838;2024-03-06T08:37:24;8.10;99.90
37702;DHT22;23548;51.196;6.838;2024-03-06T08:39:51;8.00;99.90
37702;DHT22;23548;51.196;6.838;2024-03-06T08:42:16;8.10;99.90
37702;DHT22;23548;51.196;6.838;2024-03-06T08:44:44;8.00;99.90
37702;DHT22;23548;51.196;6.838;2024-03-06T08:47:11;8.10;99.90
37702;DHT22;23548;51.196;6.838;2024-03-06T08:49:37;8.30;99.90
37702;DHT22;23548;51.196;6.838;2024-03-06T08:52:02;8.60;99.90
37702;DHT22;23548;51.196;6.838;2024-03-06T08:54:28;8.40;99.90
37702;DHT22;23548;51.196;6.838;2024-03-06T08:56:56;8.50;99.90
37702;DHT22;23548;51.196;6.838;2024-03-06T08:59:24;8.80;99.90
37702;DHT22;23548;51.196;6.838;2024-03-06T09:01:53;8.80;99.90
37702;DHT22;23548;51.196;6.838;2024-03-06T09:04:19;8.80;99.90
37702;DHT22;23548;51.196;6.838;2024-03-06T09:06:45;8.80;99.90
37702;DHT22;23548;51.196;6.838;2024-03-06T09:09:11;9.00;99.90
37702;DHT22;23548;51.196;6.838;2024-03-06T09:11:41;8.90;99.90
37702;DHT22;23548;51.196;6.838;2024-03-06T09:14:10;9.00;99.90
37702;DHT22;23548;51.196;6.838;2024-03-06T09:16:36;8.90;99.90
37702;DHT22;23548;51.196;6.838;2024-03-06T09:19:01;9.00;99.90
37702;DHT22;23548;51.196;6.838;2024-03-06T09:21:28;9.20;99.90
37702;DHT22;23548;51.196;6.838;2024-03-06T09:23:53;9.60;99.90
37702;DHT22;23548;51.196;6.838;2024-03-06T09:26:20;9.80;99.90
37702;DHT22;23548;51.196;6.838;2024-03-06T09:28:48;9.90;99.90
37702;DHT22;23548;51.196;6.838;2024-03-06T09:31:15;9.90;99.90
37702;DHT22;23548;51.196;6.838;2024-03-06T09:33:41;10.10;99.90
37702;DHT22;23548;51.196;6.838;2024-03-06T09:36:10;9.80;99.90
37702;DHT22;23548;51.196;6.838;2024-03-06T09:38:35;9.90;99.90
37702;DHT22;23548;51.196;6.838;2024-03-06T09:41:03;10.20;99.90
37702;DHT22;23548;51.196;6.838;2024-03-06T09:43:29;10.20;99.90
37702;DHT22;23548;51.196;6.838;2024-03-06T09:45:56;10.30;99.90
37702;DHT22;23548;51.196;6.838;2024-03-06T09:48:22;10.10;99.90
37702;DHT22;23548;51.196;6.838;2024-03-06T09:50:49;9.70;99.90
37702;DHT22;23548;51.196;6.838;2024-03-06T09:53:16;9.30;99.90
37702;DHT22;23548;51.196;6.838;2024-03-06T09:55:42;9.30;99.90
37702;DHT22;23548;51.196;6.838;2024-03-06T09:58:08;9.10;99.90
37702;DHT22;23548;51.196;6.838;2024-03-06T10:00:37;8.90;99.90
37702;DHT22;23548;51.196;6.838;2024-03-06T10:03:03;8.80;99.90
37702;DHT22;23548;51.196;6.838;2024-03-06T10:05:34;8.90;99.90
37702;DHT22;23548;51.196;6.838;2024-03-06T10:08:03;8.80;99.90
37702;DHT22;23548;51.196;6.838;2024-03-06T10:10:31;8.90;99.90
37702;DHT22;23548;51.196;6.838;2024-03-06T10:12:57;9.00;99.90
37702;DHT22;23548;51.196;6.838;2024-03-06T10:15:29;9.00;99.90
37702;DHT22;23548;51.196;6.838;2024-03-06T10:18:10;8.90;99.90
37702;DHT22;23548;51.196;6.838;2024-03-06T10:20:38;8.90;99.90
37702;DHT22;23548;51.196;6.838;2024-03-06T10:23:04;9.10;99.90
37702;DHT22;23548;51.196;6.838;2024-03-06T10:25:30;9.10;99.90
37702;DHT22;23548;51.196;6.838;2024-03-06T10:28:09;9.20;99.90
37702;DHT22;23548;51.196;6.838;2024-03-06T10:30:40;9.10;99.90
37702;DHT22;23548;51.196;6.838;2024-03-06T10:33:12;9.30;99.90
37702;DHT22;23548;51.196;6.838;2024-03-06T10:35:40;9.20;99.90
37702;DHT22;23548;51.196;6.838;2024-03-06T10:38:07;9.40;99.90
37702;DHT22;23548;51.196;6.838;2024-03-06T10:40:35;9.10;99.90
37702;DHT22;23548;51.196;6.838;2024-03-06T10:43:02;9.50;99.90
37702;DHT22;23548;51.196;6.838;2024-03-06T10:45:49;9.50;99.90
37702;DHT22;23548;51.196;6.838;2024-03-06T10:48:19;9.60;99.90
37702;DHT22;23548;51.196;6.838;2024-03-06T10:50:46;9.30;99.90
37702;DHT22;23548;51.196;6.838;2024-03-06T10:53:13;9.30;99.90
37702;DHT22;23548;51.196;6.838;2024-03-06T10:55:42;9.60;99.90
37702;DHT22;23548;51.196;6.838;2024-03-06T10:58:10;10.00;99.90
37702;DHT22;23548;51.196;6.838;2024-03-06T11:00:38;10.20;99.90
37702;DHT22;23548;51.196;6.838;2024-03-06T11:03:10;10.20;99.90
37702;DHT22;23548;51.196;6.838;2024-03-06T11:05:40;10.00;99.90
37702;DHT22;23548;51.196;6.838;2024-03-06T11:08:13;9.40;99.90
37702;DHT22;23548;51.196;6.838;2024-03-06T11:10:41;9.70;99.90
37702;DHT22;23548;51.196;6.838;2024-03-06T11:15:45;10.30;99.90
37702;DHT22;23548;51.196;6.838;2024-03-06T11:23:34;10.10;99.90
37702;DHT22;23548;51.196;6.838;2024-03-06T11:26:03;10.30;99.90
37702;DHT22;23548;51.196;6.838;2024-03-06T11:28:37;10.60;99.90
37702;DHT22;23548;51.196;6.838;2024-03-06T11:31:07;11.00;99.90
37702;DHT22;23548;51.196;6.838;2024-03-06T11:33:46;11.10;99.90
37702;DHT22;23548;51.196;6.838;2024-03-06T11:39:07;11.10;99.90
37702;DHT22;23548;51.196;6.838;2024-03-06T11:44:09;11.40;99.90
37702;DHT22;23548;51.196;6.838;2024-03-06T11:46:41;11.80;99.90
37702;DHT22;23548;51.196;6.838;2024-03-06T11:49:18;11.80;99.90
37702;DHT22;23548;51.196;6.838;2024-03-06T11:51:50;11.20;99.90
37702;DHT22;23548;51.196;6.838;2024-03-06T11:54:17;11.30;99.90
37702;DHT22;23548;51.196;6.838;2024-03-06T11:56:51;11.70;99.90
37702;DHT22;23548;51.196;6.838;2024-03-06T11:59:24;11.50;99.90
37702;DHT22;23548;51.196;6.838;2024-03-06T12:01:51;11.20;99.90
37702;DHT22;23548;51.196;6.838;2024-03-06T12:04:19;11.70;99.90
37702;DHT22;23548;51.196;6.838;2024-03-06T12:06:45;11.90;99.90
37702;DHT22;23548;51.196;6.838;2024-03-06T12:09:11;12.10;99.90
37702;DHT22;23548;51.196;6.838;2024-03-06T12:11:37;12.00;99.90
37702;DHT22;23548;51.196;6.838;2024-03-06T12:14:03;12.10;99.90
37702;DHT22;23548;51.196;6.838;2024-03-06T12:16:29;12.00;99.90
37702;DHT22;23548;51.196;6.838;2024-03-06T12:18:58;12.10;99.90
37702;DHT22;23548;51.196;6.838;2024-03-06T12:21:30;12.00;99.90
37702;DHT22;23548;51.196;6.838;2024-03-06T12:24:08;12.20;99.90
37702;DHT22;23548;51.196;6.838;2024-03-06T12:26:36;12.10;99.90
37702;DHT22;23548;51.196;6.838;2024-03-06T12:29:07;12.60;99.90
37702;DHT22;23548;51.196;6.838;2024-03-06T12:31:35;12.40;99.90
37702;DHT22;23548;51.196;6.838;2024-03-06T12:34:00;12.20;99.90
37702;DHT22;23548;51.196;6.838;2024-03-06T12:36:30;12.10;99.90
37702;DHT22;23548;51.196;6.838;2024-03-06T12:38:59;12.00;99.90
37702;DHT22;23548;51.196;6.838;2024-03-06T12:41:25;11.60;99.90
37702;DHT22;23548;51.196;6.838;2024-03-06T12:43:55;11.60;99.90
37702;DHT22;23548;51.196;6.838;2024-03-06T12:46:23;11.50;99.90
37702;DHT22;23548;51.196;6.838;2024-03-06T12:48:50;12.00;99.90
37702;DHT22;23548;51.196;6.838;2024-03-06T12:51:16;12.50;99.90
37702;DHT22;23548;51.196;6.838;2024-03-06T12:53:42;12.70;99.90
37702;DHT22;23548;51.196;6.838;2024-03-06T12:56:08;13.20;99.90
37702;DHT22;23548;51.196;6.838;2024-03-06T12:58:33;13.20;99.90
37702;DHT22;23548;51.196;6.838;2024-03-06T13:01:02;12.90;99.90
37702;DHT22;23548;51.196;6.838;2024-03-06T13:03:28;12.80;99.80
37702;DHT22;23548;51.196;6.838;2024-03-06T13:05:54;13.10;99.90
37702;DHT22;23548;51.196;6.838;2024-03-06T13:08:21;13.30;98.90
37702;DHT22;23548;51.196;6.838;2024-03-06T13:10:46;13.10;98.50
37702;DHT22;23548;51.196;6.838;2024-03-06T13:13:12;12.80;99.30
37702;DHT22;23548;51.196;6.838;2024-03-06T13:15:38;13.10;98.90
37702;DHT22;23548;51.196;6.838;2024-03-06T13:18:04;13.30;98.50
37702;DHT22;23548;51.196;6.838;2024-03-06T13:20:30;13.10;96.60
37702;DHT22;23548;51.196;6.838;2024-03-06T13:22:56;13.00;96.40
37702;DHT22;23548;51.196;6.838;2024-03-06T13:25:22;13.30;94.50
37702;DHT22;23548;51.196;6.838;2024-03-06T13:27:49;13.10;94.20
37702;DHT22;23548;51.196;6.838;2024-03-06T13:30:14;12.90;95.30
37702;DHT22;23548;51.196;6.838;2024-03-06T13:32:41;12.80;96.10
37702;DHT22;23548;51.196;6.838;2024-03-06T13:35:08;12.60;96.50
37702;DHT22;23548;51.196;6.838;2024-03-06T13:37:39;12.60;97.20
37702;DHT22;23548;51.196;6.838;2024-03-06T13:40:07;12.70;95.90
37702;DHT22;23548;51.196;6.838;2024-03-06T13:42:37;12.80;95.20
37702;DHT22;23548;51.196;6.838;2024-03-06T13:45:06;12.80;94.70
37702;DHT22;23548;51.196;6.838;2024-03-06T13:47:39;13.20;93.80
37702;DHT22;23548;51.196;6.838;2024-03-06T13:50:07;13.40;93.10
37702;DHT22;23548;51.196;6.838;2024-03-06T13:52:34;13.60;92.50
37702;DHT22;23548;51.196;6.838;2024-03-06T13:54:59;13.60;92.00
37702;DHT22;23548;51.196;6.838;2024-03-06T13:57:28;13.40;91.90
37702;DHT22;23548;51.196;6.838;2024-03-06T13:59:54;13.50;91.80
37702;DHT22;23548;51.196;6.838;2024-03-06T14:02:20;13.80;90.70
37702;DHT22;23548;51.196;6.838;2024-03-06T14:04:46;14.00;89.90
37702;DHT22;23548;51.196;6.838;2024-03-06T14:07:12;14.10;90.10
37702;DHT22;23548;51.196;6.838;2024-03-06T14:09:38;14.50;88.50
37702;DHT22;23548;51.196;6.838;2024-03-06T14:12:04;14.90;84.50
37702;DHT22;23548;51.196;6.838;2024-03-06T14:14:30;14.80;83.70
37702;DHT22;23548;51.196;6.838;2024-03-06T14:16:56;15.70;82.10
37702;DHT22;23548;51.196;6.838;2024-03-06T14:19:21;16.70;78.60
37702;DHT22;23548;51.196;6.838;2024-03-06T14:21:47;17.70;74.60
37702;DHT22;23548;51.196;6.838;2024-03-06T14:24:13;19.20;63.10
37702;DHT22;23548;51.196;6.838;2024-03-06T14:26:39;20.30;55.80
37702;DHT22;23548;51.196;6.838;2024-03-06T14:29:06;21.60;50.20
37702;DHT22;23548;51.196;6.838;2024-03-06T14:31:33;19.50;49.90
37702;DHT22;23548;51.196;6.838;2024-03-06T14:33:59;19.20;53.70
37702;DHT22;23548;51.196;6.838;2024-03-06T14:36:25;17.30;59.00
37702;DHT22;23548;51.196;6.838;2024-03-06T14:38:52;15.40;65.90
37702;DHT22;23548;51.196;6.838;2024-03-06T14:41:18;13.90;73.30
37702;DHT22;23548;51.196;6.838;2024-03-06T14:43:45;13.80;77.60
37702;DHT22;23548;51.196;6.838;2024-03-06T14:46:11;13.70;79.70
37702;DHT22;23548;51.196;6.838;2024-03-06T14:48:38;13.50;83.30
37702;DHT22;23548;51.196;6.838;2024-03-06T14:51:04;13.30;85.40
37702;DHT22;23548;51.196;6.838;2024-03-06T14:53:29;13.00;84.80
37702;DHT22;23548;51.196;6.838;2024-03-06T14:55:56;12.80;88.60
37702;DHT22;23548;51.196;6.838;2024-03-06T14:58:22;12.70;90.00
37702;DHT22;23548;51.196;6.838;2024-03-06T15:00:49;12.60;90.10
37702;DHT22;23548;51.196;6.838;2024-03-06T15:03:15;12.50;90.50
37702;DHT22;23548;51.196;6.838;2024-03-06T15:05:40;12.40;91.00
37702;DHT22;23548;51.196;6.838;2024-03-06T15:08:06;12.30;91.60
37702;DHT22;23548;51.196;6.838;2024-03-06T15:10:32;12.40;91.50
37702;DHT22;23548;51.196;6.838;2024-03-06T15:12:58;12.40;91.20
37702;DHT22;23548;51.196;6.838;2024-03-06T15:15:24;12.30;91.00
37702;DHT22;23548;51.196;6.838;2024-03-06T15:17:50;12.30;90.80
37702;DHT22;23548;51.196;6.838;2024-03-06T15:20:15;12.10;91.10
37702;DHT22;23548;51.196;6.838;2024-03-06T15:22:43;12.10;91.10
37702;DHT22;23548;51.196;6.838;2024-03-06T15:25:13;12.10;91.20
37702;DHT22;23548;51.196;6.838;2024-03-06T15:27:40;12.10;91.40
37702;DHT22;23548;51.196;6.838;2024-03-06T15:30:08;12.10;91.20
37702;DHT22;23548;51.196;6.838;2024-03-06T15:32:34;12.00;91.50
37702;DHT22;23548;51.196;6.838;2024-03-06T15:35:00;12.00;92.10
37702;DHT22;23548;51.196;6.838;2024-03-06T15:37:26;12.00;92.20
37702;DHT22;23548;51.196;6.838;2024-03-06T15:39:53;12.00;92.30
37702;DHT22;23548;51.196;6.838;2024-03-06T15:42:22;12.00;91.80
37702;DHT22;23548;51.196;6.838;2024-03-06T15:44:49;12.00;91.70
37702;DHT22;23548;51.196;6.838;2024-03-06T15:47:17;11.90;92.20
37702;DHT22;23548;51.196;6.838;2024-03-06T15:49:43;12.00;92.30
37702;DHT22;23548;51.196;6.838;2024-03-06T15:52:12;12.00;92.40
37702;DHT22;23548;51.196;6.838;2024-03-06T15:54:39;12.10;92.00
37702;DHT22;23548;51.196;6.838;2024-03-06T15:57:05;12.10;92.10